createdAt,value
2022-08-31T00:00:54.818Z,8.32
2022-08-31T00:06:02.092Z,13.70
2022-08-31T00:11:03.970Z,11.63
2022-08-31T00:16:09.071Z,11.25
2022-08-31T00:21:10.920Z,8.93
2022-08-31T00:26:12.791Z,8.43
2022-08-31T00:31:15.555Z,7.95
2022-08-31T00:36:17.477Z,9.50
2022-08-31T00:41:25.538Z,9.52
2022-08-31T00:46:31.039Z,9.60
2022-08-31T00:51:50.805Z,7.80
2022-08-31T00:56:53.805Z,10.82
2022-08-31T01:01:55.749Z,8.52
2022-08-31T01:06:58.988Z,8.38
2022-08-31T01:12:01.378Z,9.40
2022-08-31T01:17:03.925Z,11.40
2022-08-31T01:22:30.911Z,10.10
2022-08-31T01:27:35.804Z,13.23
2022-08-31T01:32:39.234Z,8.45
2022-08-31T01:37:41.089Z,9.93
2022-08-31T01:42:43.554Z,8.98
2022-08-31T01:47:45.525Z,8.75
2022-08-31T01:52:47.365Z,8.50
2022-08-31T01:57:49.344Z,8.00
2022-08-31T02:03:10.253Z,8.80
2022-08-31T02:08:12.611Z,9.60
2022-08-31T02:13:14.770Z,9.95
2022-08-31T02:18:16.790Z,10.02
2022-08-31T02:23:21.346Z,7.50
2022-08-31T02:28:24.716Z,11.75
2022-08-31T02:33:28.522Z,9.23
2022-08-31T02:38:34.844Z,9.35
2022-08-31T02:43:36.800Z,9.00
2022-08-31T02:48:38.804Z,11.52
2022-08-31T02:53:40.798Z,8.68
2022-08-31T02:58:42.916Z,8.77
2022-08-31T03:03:46.793Z,8.57
2022-08-31T03:08:50.875Z,11.23
2022-08-31T03:13:57.776Z,9.70
2022-08-31T03:19:00.445Z,10.43
2022-08-31T03:24:02.350Z,7.93
2022-08-31T03:29:04.581Z,8.23
2022-08-31T03:34:26.422Z,7.95
2022-08-31T03:39:28.298Z,8.00
2022-08-31T03:44:30.216Z,11.43
2022-08-31T03:49:32.208Z,7.90
2022-08-31T03:54:43.770Z,8.75
2022-08-31T03:59:46.874Z,8.55
2022-08-31T04:04:55.310Z,7.85
2022-08-31T04:10:26.591Z,8.65
2022-08-31T04:15:46.802Z,8.18
2022-08-31T04:21:23.005Z,9.25
2022-08-31T04:26:33.076Z,10.77
2022-08-31T04:31:37.293Z,14.18
2022-08-31T04:36:39.353Z,9.13
2022-08-31T04:41:42.323Z,11.18
2022-08-31T04:46:47.464Z,11.57
2022-08-31T04:51:49.437Z,9.13
2022-08-31T04:56:51.376Z,10.43
2022-08-31T05:02:04.010Z,9.45
2022-08-31T05:07:15.800Z,13.55
2022-08-31T05:12:18.940Z,11.23
2022-08-31T05:17:20.873Z,9.13
2022-08-31T05:22:22.819Z,11.90
2022-08-31T05:27:27.753Z,9.85
2022-08-31T05:32:29.913Z,10.73
2022-08-31T05:37:34.069Z,10.32
2022-08-31T05:42:36.609Z,10.15
2022-08-31T05:47:39.560Z,9.93
2022-08-31T05:52:41.534Z,8.88
2022-08-31T05:57:44.082Z,11.07
2022-08-31T06:02:49.293Z,8.48
2022-08-31T06:07:54.069Z,8.05
2022-08-31T06:12:55.974Z,8.70
2022-08-31T06:17:57.932Z,9.75
2022-08-31T06:23:04.032Z,8.60
2022-08-31T06:28:15.809Z,10.40
2022-08-31T06:33:18.076Z,10.70
2022-08-31T06:38:32.976Z,10.63
2022-08-31T06:43:54.415Z,11.32
2022-08-31T06:49:10.939Z,12.53
2022-08-31T06:54:28.908Z,9.38
2022-08-31T06:59:53.652Z,12.73
2022-08-31T07:05:19.835Z,9.75
2022-08-31T07:10:22.161Z,10.30
2022-08-31T07:15:24.098Z,12.05
2022-08-31T07:20:26.054Z,12.32
2022-08-31T07:25:27.933Z,9.35
2022-08-31T07:30:34.210Z,9.63
2022-08-31T07:35:37.218Z,8.57
2022-08-31T07:41:06.371Z,10.27
2022-08-31T07:46:10.329Z,12.45
2022-08-31T07:51:15.460Z,9.00
2022-08-31T07:56:37.283Z,9.75
2022-08-31T08:01:48.415Z,8.77
2022-08-31T08:06:57.341Z,8.70
2022-08-31T08:12:25.538Z,8.80
2022-08-31T08:23:00.636Z,9.85
2022-08-31T08:28:22.724Z,12.43
2022-08-31T08:33:29.448Z,12.43
2022-08-31T08:38:31.736Z,11.40
2022-08-31T08:43:40.358Z,12.25
2022-08-31T08:48:47.826Z,9.63
2022-08-31T08:54:03.395Z,11.35
2022-08-31T08:59:15.818Z,15.35
2022-08-31T09:04:40.110Z,12.75
2022-08-31T09:10:31.108Z,13.60
2022-08-31T09:15:55.118Z,11.15
2022-08-31T09:21:06.237Z,8.35
2022-08-31T09:26:10.108Z,12.60
2022-08-31T09:31:38.721Z,12.30
2022-08-31T09:36:41.700Z,8.82
2022-08-31T09:41:44.885Z,8.57
2022-08-31T09:46:56.837Z,11.13
2022-08-31T09:52:47.961Z,12.77
2022-08-31T09:57:55.919Z,8.30
2022-08-31T10:08:18.856Z,7.90
2022-08-31T10:13:44.752Z,6.13
2022-08-31T10:18:59.397Z,7.00
2022-08-31T10:24:20.814Z,7.15
2022-08-31T10:30:14.834Z,5.82
2022-08-31T10:35:20.632Z,7.25
2022-08-31T10:40:33.109Z,6.22
2022-08-31T10:45:40.305Z,5.72
2022-08-31T10:50:57.753Z,7.70
2022-08-31T10:56:35.512Z,9.87
2022-08-31T11:01:46.668Z,8.15
2022-08-31T11:07:25.134Z,5.50
2022-08-31T11:12:37.736Z,6.90
2022-08-31T11:17:52.793Z,6.15
2022-08-31T11:23:06.225Z,6.75
2022-08-31T11:28:34.236Z,11.55
2022-08-31T11:33:36.426Z,6.22
2022-08-31T11:38:54.910Z,4.72
2022-08-31T11:43:57.122Z,4.95
2022-08-31T11:48:59.718Z,6.50
2022-08-31T11:54:04.985Z,8.88
2022-08-31T11:59:19.081Z,5.28
2022-08-31T12:04:53.706Z,5.47
2022-08-31T12:10:08.104Z,5.75
2022-08-31T12:15:25.266Z,5.30
2022-08-31T12:20:57.146Z,5.72
2022-08-31T12:26:45.460Z,5.45
2022-08-31T12:32:04.651Z,7.87
2022-08-31T12:37:28.093Z,6.70
2022-08-31T12:42:33.019Z,8.18
2022-08-31T12:48:02.390Z,7.78
2022-08-31T12:53:42.534Z,8.13
2022-08-31T12:58:56.313Z,7.85
2022-08-31T13:04:03.371Z,7.85
2022-08-31T13:09:06.630Z,9.80
2022-08-31T13:14:19.905Z,7.43
2022-08-31T13:19:29.373Z,7.47
2022-08-31T13:24:41.921Z,8.05
2022-08-31T13:29:48.878Z,6.55
2022-08-31T13:34:52.405Z,7.05
2022-08-31T13:39:54.813Z,6.68
2022-08-31T13:45:00.605Z,8.65
2022-08-31T13:50:13.201Z,6.97
2022-08-31T13:55:39.547Z,7.80
2022-08-31T14:00:43.627Z,8.30
2022-08-31T14:05:45.853Z,8.00
2022-08-31T14:10:49.694Z,8.02
2022-08-31T14:15:56.410Z,7.50
2022-08-31T14:21:21.088Z,6.90
2022-08-31T14:26:28.793Z,6.90
2022-08-31T14:31:37.323Z,8.32
2022-08-31T14:36:50.299Z,8.13
2022-08-31T14:41:54.928Z,9.65
2022-08-31T14:46:57.034Z,8.55
2022-08-31T14:52:04.521Z,6.45
2022-08-31T14:57:17.916Z,7.10
2022-08-31T15:02:21.274Z,7.93
2022-08-31T15:07:23.397Z,7.47
2022-08-31T15:12:25.820Z,6.93
2022-08-31T15:17:30.195Z,7.10
2022-08-31T15:22:33.176Z,7.20
2022-08-31T15:27:34.980Z,7.28
2022-08-31T15:32:45.181Z,6.07
2022-08-31T15:38:01.545Z,6.03
2022-08-31T15:43:04.212Z,5.80
2022-08-31T15:48:24.567Z,7.40
2022-08-31T15:53:30.315Z,7.13
2022-08-31T15:58:33.912Z,5.85
2022-08-31T16:03:35.839Z,6.32
2022-08-31T16:08:41.100Z,6.22
2022-08-31T16:13:52.053Z,6.10
2022-08-31T16:18:57.206Z,6.72
2022-08-31T16:24:01.154Z,9.07
2022-08-31T16:29:06.234Z,7.82
2022-08-31T16:34:08.166Z,6.72
2022-08-31T16:39:10.131Z,6.78
2022-08-31T16:44:20.513Z,6.40
2022-08-31T16:49:35.856Z,8.35
2022-08-31T16:54:42.803Z,8.25
2022-08-31T16:59:46.537Z,6.30
2022-08-31T17:04:52.454Z,7.18
2022-08-31T17:09:57.472Z,7.07
2022-08-31T17:15:00.366Z,7.35
2022-08-31T17:20:02.667Z,6.40
2022-08-31T17:25:08.033Z,6.78
2022-08-31T17:30:10.281Z,7.18
2022-08-31T17:35:17.420Z,7.10
2022-08-31T17:40:21.321Z,7.63
2022-08-31T17:45:23.337Z,9.77
2022-08-31T17:50:25.200Z,6.80
2022-08-31T17:55:27.108Z,6.25
2022-08-31T18:00:29.132Z,7.05
2022-08-31T18:05:31.198Z,6.32
2022-08-31T18:10:33.648Z,6.07
2022-08-31T18:15:35.497Z,7.30
2022-08-31T18:20:41.797Z,7.20
2022-08-31T18:25:43.661Z,6.30
2022-08-31T18:30:45.609Z,6.32
2022-08-31T18:35:48.746Z,7.13
2022-08-31T18:41:09.073Z,5.72
2022-08-31T18:46:11.651Z,6.80
2022-08-31T18:51:15.406Z,6.90
2022-08-31T18:56:20.873Z,7.50
2022-08-31T19:01:23.173Z,7.13
2022-08-31T19:06:26.610Z,7.82
2022-08-31T19:11:29.041Z,7.05
2022-08-31T19:16:30.971Z,8.55
2022-08-31T19:21:34.722Z,6.63
2022-08-31T19:26:48.629Z,9.63
2022-08-31T19:31:51.438Z,6.38
2022-08-31T19:36:55.385Z,6.88
2022-08-31T19:42:02.604Z,6.55
2022-08-31T19:47:07.607Z,7.30
2022-08-31T19:52:09.627Z,6.03
2022-08-31T19:57:11.682Z,6.35
2022-08-31T20:02:14.061Z,6.45
2022-08-31T20:07:16.729Z,6.75
2022-08-31T20:12:19.449Z,6.85
2022-08-31T20:17:21.434Z,7.35
2022-08-31T20:22:23.983Z,6.70
2022-08-31T20:27:30.971Z,6.97
2022-08-31T20:32:36.053Z,6.25
2022-08-31T20:37:39.087Z,6.75
2022-08-31T20:42:42.366Z,6.10
2022-08-31T20:48:02.664Z,6.47
2022-08-31T20:53:06.852Z,7.28
2022-08-31T20:58:08.694Z,6.40
2022-08-31T21:03:11.650Z,6.25
2022-08-31T21:08:15.908Z,6.28
2022-08-31T21:13:18.082Z,6.93
2022-08-31T21:18:20.018Z,7.82
2022-08-31T21:23:22.162Z,6.63
2022-08-31T21:28:23.990Z,9.68
2022-08-31T21:33:25.926Z,6.78
2022-08-31T21:38:27.777Z,6.75
2022-08-31T21:43:29.929Z,10.65
2022-08-31T21:48:34.397Z,7.03
2022-08-31T21:53:36.746Z,7.03
2022-08-31T21:58:39.422Z,8.05
2022-08-31T22:03:42.037Z,6.50
2022-08-31T22:08:43.902Z,6.15
2022-08-31T22:13:47.964Z,6.25
2022-08-31T22:19:02.328Z,7.18
2022-08-31T22:24:08.202Z,6.25
2022-08-31T22:29:12.253Z,6.93
2022-08-31T22:34:14.169Z,6.18
2022-08-31T22:39:18.694Z,6.00
2022-08-31T22:44:24.862Z,6.45
2022-08-31T22:49:27.135Z,6.50
2022-08-31T22:54:29.055Z,5.57
2022-08-31T22:59:31.238Z,5.80
2022-08-31T23:04:34.739Z,6.30
2022-08-31T23:09:36.693Z,6.72
2022-08-31T23:14:41.265Z,6.68
2022-08-31T23:19:43.709Z,5.68
2022-08-31T23:24:48.557Z,6.32
2022-08-31T23:29:55.973Z,6.10
2022-08-31T23:34:58.579Z,6.23
2022-08-31T23:40:00.772Z,6.15
2022-08-31T23:45:02.686Z,6.70
2022-08-31T23:50:07.646Z,6.60
2022-08-31T23:55:10.973Z,7.55
